Live aus Altenrhein
LIVE
LSZR 232020Z AUTO VRB02KT 9999 OVC050TCU 26/17 Q1019

People´s Info Center:

Öffnungszeiten Mo-Fr, 8-18 Uhr

 

info@peoples.ch

 
Aus Österreich:

T: +43 (0)5572 203 610

 

Aus CH / LI / DE:

T: +41 (0)71 858 51 60

 

Mein Pass ist abgelaufen, was kann ich tun?

 

Der Pass darf für die Strecke Altenrhein-Wien bis zu 5 Jahre abgelaufen sein. Der Personalausweis muss immer gültig sein; ist dieser abgelaufen, so muss eine Enthaftungserklärung am Check-in Schalter unterschrieben werden, in der der Passagier sich bereit erklärt, die Kosten für die Rückreise selbst zu bezahlen, sofern ihm die Einreise verweigert wird. Für die Charterdestinationen ist es abhängig der Destination. Bitte nehmen Sie daher mit dem Info Center oder Reiseveranstalter direkt Kontakt auf.

 

Ohne Personalausweis, Pass oder Führerschein wird der Transport verweigert.